sensor_id;sensor_type;location;lat;lon;timestamp;temperature;humidity
64961;SHT31;51487;52.266;10.542;2023-04-15T00:01:59;7.87;87.19
64961;SHT31;51487;52.266;10.542;2023-04-15T00:04:24;7.78;87.49
64961;SHT31;51487;52.266;10.542;2023-04-15T00:06:51;7.97;86.95
64961;SHT31;51487;52.266;10.542;2023-04-15T00:09:20;7.97;87.10
64961;SHT31;51487;52.266;10.542;2023-04-15T00:11:45;7.97;86.89
64961;SHT31;51487;52.266;10.542;2023-04-15T00:14:12;8.08;86.85
64961;SHT31;51487;52.266;10.542;2023-04-15T00:16:37;8.11;86.88
64961;SHT31;51487;52.266;10.542;2023-04-15T00:19:02;8.11;86.90
64961;SHT31;51487;52.266;10.542;2023-04-15T00:21:28;8.14;86.92
64961;SHT31;51487;52.266;10.542;2023-04-15T00:23:53;8.11;87.07
64961;SHT31;51487;52.266;10.542;2023-04-15T00:26:19;8.04;87.14
64961;SHT31;51487;52.266;10.542;2023-04-15T00:28:45;8.08;87.51
64961;SHT31;51487;52.266;10.542;2023-04-15T00:31:11;8.08;87.58
64961;SHT31;51487;52.266;10.542;2023-04-15T00:33:36;7.95;87.98
64961;SHT31;51487;52.266;10.542;2023-04-15T00:36:01;8.02;87.94
64961;SHT31;51487;52.266;10.542;2023-04-15T00:38:28;8.01;88.34
64961;SHT31;51487;52.266;10.542;2023-04-15T00:40:53;8.08;88.04
64961;SHT31;51487;52.266;10.542;2023-04-15T00:43:19;8.01;88.74
64961;SHT31;51487;52.266;10.542;2023-04-15T00:45:45;8.11;88.38
64961;SHT31;51487;52.266;10.542;2023-04-15T00:48:11;8.15;88.16
64961;SHT31;51487;52.266;10.542;2023-04-15T00:50:37;8.04;88.43
64961;SHT31;51487;52.266;10.542;2023-04-15T00:53:03;7.87;89.32
64961;SHT31;51487;52.266;10.542;2023-04-15T00:55:28;7.90;89.62
64961;SHT31;51487;52.266;10.542;2023-04-15T00:57:55;8.02;89.21
64961;SHT31;51487;52.266;10.542;2023-04-15T01:00:21;7.91;89.62
64961;SHT31;51487;52.266;10.542;2023-04-15T01:02:46;7.87;90.01
64961;SHT31;51487;52.266;10.542;2023-04-15T01:05:12;7.94;89.91
64961;SHT31;51487;52.266;10.542;2023-04-15T01:07:38;7.78;90.49
64961;SHT31;51487;52.266;10.542;2023-04-15T01:10:03;7.86;90.33
64961;SHT31;51487;52.266;10.542;2023-04-15T01:12:31;7.66;91.22
64961;SHT31;51487;52.266;10.542;2023-04-15T01:14:58;7.57;91.31
64961;SHT31;51487;52.266;10.542;2023-04-15T01:17:24;7.63;91.23
64961;SHT31;51487;52.266;10.542;2023-04-15T01:19:50;7.66;90.99
64961;SHT31;51487;52.266;10.542;2023-04-15T01:22:16;7.62;91.51
64961;SHT31;51487;52.266;10.542;2023-04-15T01:24:50;7.49;91.94
64961;SHT31;51487;52.266;10.542;2023-04-15T01:27:20;7.49;92.17
64961;SHT31;51487;52.266;10.542;2023-04-15T01:29:45;7.49;92.64
64961;SHT31;51487;52.266;10.542;2023-04-15T01:32:11;7.52;92.31
64961;SHT31;51487;52.266;10.542;2023-04-15T01:34:37;7.29;93.10
64961;SHT31;51487;52.266;10.542;2023-04-15T01:37:02;7.45;92.76
64961;SHT31;51487;52.266;10.542;2023-04-15T01:39:27;7.40;93.24
64961;SHT31;51487;52.266;10.542;2023-04-15T01:41:53;7.35;93.55
64961;SHT31;51487;52.266;10.542;2023-04-15T01:44:18;7.39;93.35
64961;SHT31;51487;52.266;10.542;2023-04-15T01:46:43;7.45;92.69
64961;SHT31;51487;52.266;10.542;2023-04-15T01:49:09;7.45;92.82
64961;SHT31;51487;52.266;10.542;2023-04-15T01:51:34;7.36;93.38
64961;SHT31;51487;52.266;10.542;2023-04-15T01:54:00;7.29;93.14
64961;SHT31;51487;52.266;10.542;2023-04-15T01:56:25;7.30;93.93
64961;SHT31;51487;52.266;10.542;2023-04-15T01:58:51;7.25;93.78
64961;SHT31;51487;52.266;10.542;2023-04-15T02:01:17;7.32;93.69
64961;SHT31;51487;52.266;10.542;2023-04-15T02:03:44;7.39;93.54
64961;SHT31;51487;52.266;10.542;2023-04-15T02:06:09;7.45;93.18
64961;SHT31;51487;52.266;10.542;2023-04-15T02:08:35;7.53;93.19
64961;SHT31;51487;52.266;10.542;2023-04-15T02:11:01;7.47;93.08
64961;SHT31;51487;52.266;10.542;2023-04-15T02:13:26;7.39;93.77
64961;SHT31;51487;52.266;10.542;2023-04-15T02:15:53;7.25;94.55
64961;SHT31;51487;52.266;10.542;2023-04-15T02:18:19;7.40;93.96
64961;SHT31;51487;52.266;10.542;2023-04-15T02:20:44;7.36;93.74
64961;SHT31;51487;52.266;10.542;2023-04-15T02:23:11;7.20;94.50
64961;SHT31;51487;52.266;10.542;2023-04-15T02:25:36;7.33;94.37
64961;SHT31;51487;52.266;10.542;2023-04-15T02:28:04;7.14;94.95
64961;SHT31;51487;52.266;10.542;2023-04-15T02:30:30;7.23;94.50
64961;SHT31;51487;52.266;10.542;2023-04-15T02:32:56;7.09;94.60
64961;SHT31;51487;52.266;10.542;2023-04-15T02:35:21;7.18;94.56
64961;SHT31;51487;52.266;10.542;2023-04-15T02:37:50;7.19;94.73
64961;SHT31;51487;52.266;10.542;2023-04-15T02:40:17;7.11;95.13
64961;SHT31;51487;52.266;10.542;2023-04-15T02:42:43;7.26;94.38
64961;SHT31;51487;52.266;10.542;2023-04-15T02:45:09;7.35;94.03
64961;SHT31;51487;52.266;10.542;2023-04-15T02:47:36;7.20;94.21
64961;SHT31;51487;52.266;10.542;2023-04-15T02:50:05;7.20;95.28
64961;SHT31;51487;52.266;10.542;2023-04-15T02:52:31;7.25;95.24
64961;SHT31;51487;52.266;10.542;2023-04-15T02:54:57;7.18;95.37
64961;SHT31;51487;52.266;10.542;2023-04-15T02:57:26;7.28;95.07
64961;SHT31;51487;52.266;10.542;2023-04-15T02:59:52;7.33;94.85
64961;SHT31;51487;52.266;10.542;2023-04-15T03:02:18;7.25;95.13
64961;SHT31;51487;52.266;10.542;2023-04-15T03:04:43;7.14;95.78
64961;SHT31;51487;52.266;10.542;2023-04-15T03:07:08;7.09;96.07
64961;SHT31;51487;52.266;10.542;2023-04-15T03:09:34;6.99;96.92
64961;SHT31;51487;52.266;10.542;2023-04-15T03:12:00;7.14;96.64
64961;SHT31;51487;52.266;10.542;2023-04-15T03:14:26;7.22;96.19
64961;SHT31;51487;52.266;10.542;2023-04-15T03:16:51;7.09;96.67
64961;SHT31;51487;52.266;10.542;2023-04-15T03:19:16;7.20;96.62
64961;SHT31;51487;52.266;10.542;2023-04-15T03:21:42;7.23;96.58
64961;SHT31;51487;52.266;10.542;2023-04-15T03:24:08;7.20;96.32
64961;SHT31;51487;52.266;10.542;2023-04-15T03:26:33;7.29;96.35
64961;SHT31;51487;52.266;10.542;2023-04-15T03:28:59;7.08;97.16
64961;SHT31;51487;52.266;10.542;2023-04-15T03:31:24;6.99;97.51
64961;SHT31;51487;52.266;10.542;2023-04-15T03:33:50;7.18;96.97
64961;SHT31;51487;52.266;10.542;2023-04-15T03:36:15;7.04;97.89
64961;SHT31;51487;52.266;10.542;2023-04-15T03:38:41;6.97;98.16
64961;SHT31;51487;52.266;10.542;2023-04-15T03:41:06;6.99;97.98
64961;SHT31;51487;52.266;10.542;2023-04-15T03:43:32;7.08;98.11
64961;SHT31;51487;52.266;10.542;2023-04-15T03:45:57;7.16;97.70
64961;SHT31;51487;52.266;10.542;2023-04-15T03:48:23;7.09;97.57
64961;SHT31;51487;52.266;10.542;2023-04-15T03:50:48;7.07;97.82
64961;SHT31;51487;52.266;10.542;2023-04-15T03:53:14;7.08;98.28
64961;SHT31;51487;52.266;10.542;2023-04-15T03:55:40;7.07;98.56
64961;SHT31;51487;52.266;10.542;2023-04-15T03:58:05;6.97;98.42
64961;SHT31;51487;52.266;10.542;2023-04-15T04:00:31;6.98;98.36
64961;SHT31;51487;52.266;10.542;2023-04-15T04:02:56;6.91;98.92
64961;SHT31;51487;52.266;10.542;2023-04-15T04:05:21;6.99;98.50
64961;SHT31;51487;52.266;10.542;2023-04-15T04:07:47;7.02;98.76
64961;SHT31;51487;52.266;10.542;2023-04-15T04:10:12;6.98;98.82
64961;SHT31;51487;52.266;10.542;2023-04-15T04:12:38;7.01;98.70
64961;SHT31;51487;52.266;10.542;2023-04-15T04:15:04;6.94;98.84
64961;SHT31;51487;52.266;10.542;2023-04-15T04:17:29;7.14;98.40
64961;SHT31;51487;52.266;10.542;2023-04-15T04:19:55;7.23;97.99
64961;SHT31;51487;52.266;10.542;2023-04-15T04:22:22;7.01;98.69
64961;SHT31;51487;52.266;10.542;2023-04-15T04:24:48;6.95;98.77
64961;SHT31;51487;52.266;10.542;2023-04-15T04:27:13;6.94;99.04
64961;SHT31;51487;52.266;10.542;2023-04-15T04:29:38;6.98;99.02
64961;SHT31;51487;52.266;10.542;2023-04-15T04:32:04;7.08;98.77
64961;SHT31;51487;52.266;10.542;2023-04-15T04:34:30;7.04;98.59
64961;SHT31;51487;52.266;10.542;2023-04-15T04:36:56;7.15;98.35
64961;SHT31;51487;52.266;10.542;2023-04-15T04:39:22;7.01;98.86
64961;SHT31;51487;52.266;10.542;2023-04-15T04:41:47;6.99;99.25
64961;SHT31;51487;52.266;10.542;2023-04-15T04:44:13;6.97;99.43
64961;SHT31;51487;52.266;10.542;2023-04-15T04:46:39;6.95;99.29
64961;SHT31;51487;52.266;10.542;2023-04-15T04:49:04;6.99;98.98
64961;SHT31;51487;52.266;10.542;2023-04-15T04:51:30;7.01;99.52
64961;SHT31;51487;52.266;10.542;2023-04-15T04:53:55;7.15;98.97
64961;SHT31;51487;52.266;10.542;2023-04-15T04:56:21;7.09;99.20
64961;SHT31;51487;52.266;10.542;2023-04-15T04:58:46;6.97;99.99
64961;SHT31;51487;52.266;10.542;2023-04-15T05:01:12;7.09;99.86
64961;SHT31;51487;52.266;10.542;2023-04-15T05:03:37;7.05;99.72
64961;SHT31;51487;52.266;10.542;2023-04-15T05:06:03;7.04;99.53
64961;SHT31;51487;52.266;10.542;2023-04-15T05:08:30;7.08;99.65
64961;SHT31;51487;52.266;10.542;2023-04-15T05:10:55;7.14;99.39
64961;SHT31;51487;52.266;10.542;2023-04-15T05:13:21;7.11;99.19
64961;SHT31;51487;52.266;10.542;2023-04-15T05:15:46;7.11;98.98
64961;SHT31;51487;52.266;10.542;2023-04-15T05:18:12;6.98;99.11
64961;SHT31;51487;52.266;10.542;2023-04-15T05:20:37;7.04;99.59
64961;SHT31;51487;52.266;10.542;2023-04-15T05:23:03;7.07;99.66
64961;SHT31;51487;52.266;10.542;2023-04-15T05:25:28;6.94;99.29
64961;SHT31;51487;52.266;10.542;2023-04-15T05:27:54;6.85;99.90
64961;SHT31;51487;52.266;10.542;2023-04-15T05:30:19;7.05;99.33
64961;SHT31;51487;52.266;10.542;2023-04-15T05:32:45;7.16;98.68
64961;SHT31;51487;52.266;10.542;2023-04-15T05:35:10;7.19;98.70
64961;SHT31;51487;52.266;10.542;2023-04-15T05:37:36;7.22;98.60
64961;SHT31;51487;52.266;10.542;2023-04-15T05:40:01;7.15;98.49
64961;SHT31;51487;52.266;10.542;2023-04-15T05:42:28;7.12;98.91
64961;SHT31;51487;52.266;10.542;2023-04-15T05:44:53;7.25;98.31
64961;SHT31;51487;52.266;10.542;2023-04-15T05:47:19;7.29;98.15
64961;SHT31;51487;52.266;10.542;2023-04-15T05:49:44;7.35;98.03
64961;SHT31;51487;52.266;10.542;2023-04-15T05:52:10;7.36;98.09
64961;SHT31;51487;52.266;10.542;2023-04-15T05:54:35;7.42;97.84
64961;SHT31;51487;52.266;10.542;2023-04-15T05:57:00;7.32;98.60
64961;SHT31;51487;52.266;10.542;2023-04-15T05:59:26;7.39;98.14
64961;SHT31;51487;52.266;10.542;2023-04-15T06:01:52;7.47;97.83
64961;SHT31;51487;52.266;10.542;2023-04-15T06:04:18;7.52;97.70
64961;SHT31;51487;52.266;10.542;2023-04-15T06:06:43;7.47;97.78
64961;SHT31;51487;52.266;10.542;2023-04-15T06:09:09;7.50;97.59
64961;SHT31;51487;52.266;10.542;2023-04-15T06:11:35;7.49;97.81
64961;SHT31;51487;52.266;10.542;2023-04-15T06:14:00;7.62;97.32
64961;SHT31;51487;52.266;10.542;2023-04-15T06:16:26;7.42;97.51
64961;SHT31;51487;52.266;10.542;2023-04-15T06:18:51;7.57;97.52
64961;SHT31;51487;52.266;10.542;2023-04-15T06:21:17;7.52;97.80
64961;SHT31;51487;52.266;10.542;2023-04-15T06:23:42;7.57;97.58
64961;SHT31;51487;52.266;10.542;2023-04-15T06:26:08;7.62;97.72
64961;SHT31;51487;52.266;10.542;2023-04-15T06:28:33;7.66;97.50
64961;SHT31;51487;52.266;10.542;2023-04-15T06:30:59;7.65;97.31
64961;SHT31;51487;52.266;10.542;2023-04-15T06:33:25;7.66;97.56
64961;SHT31;51487;52.266;10.542;2023-04-15T06:35:51;7.65;97.39
64961;SHT31;51487;52.266;10.542;2023-04-15T06:38:16;7.71;97.47
64961;SHT31;51487;52.266;10.542;2023-04-15T06:40:42;7.73;97.20
64961;SHT31;51487;52.266;10.542;2023-04-15T06:43:07;7.52;98.35
64961;SHT31;51487;52.266;10.542;2023-04-15T06:45:33;7.76;97.78
64961;SHT31;51487;52.266;10.542;2023-04-15T06:47:58;7.70;97.72
64961;SHT31;51487;52.266;10.542;2023-04-15T06:50:24;7.71;97.89
64961;SHT31;51487;52.266;10.542;2023-04-15T06:52:50;7.70;97.86
64961;SHT31;51487;52.266;10.542;2023-04-15T06:55:15;7.87;97.36
64961;SHT31;51487;52.266;10.542;2023-04-15T06:57:40;7.91;97.05
64961;SHT31;51487;52.266;10.542;2023-04-15T07:00:06;8.01;96.78
64961;SHT31;51487;52.266;10.542;2023-04-15T07:02:32;7.90;97.06
64961;SHT31;51487;52.266;10.542;2023-04-15T07:04:58;7.84;97.60
64961;SHT31;51487;52.266;10.542;2023-04-15T07:07:23;7.91;97.32
64961;SHT31;51487;52.266;10.542;2023-04-15T07:09:49;7.91;97.64
64961;SHT31;51487;52.266;10.542;2023-04-15T07:12:15;7.94;97.58
64961;SHT31;51487;52.266;10.542;2023-04-15T07:14:40;7.97;97.42
64961;SHT31;51487;52.266;10.542;2023-04-15T07:17:06;7.99;97.21
64961;SHT31;51487;52.266;10.542;2023-04-15T07:19:31;8.01;96.99
64961;SHT31;51487;52.266;10.542;2023-04-15T07:21:57;7.80;97.82
64961;SHT31;51487;52.266;10.542;2023-04-15T07:24:22;7.86;98.00
64961;SHT31;51487;52.266;10.542;2023-04-15T07:26:51;7.97;97.81
64961;SHT31;51487;52.266;10.542;2023-04-15T07:29:17;8.07;97.27
64961;SHT31;51487;52.266;10.542;2023-04-15T07:31:42;8.07;96.71
64961;SHT31;51487;52.266;10.542;2023-04-15T07:34:07;8.09;96.83
64961;SHT31;51487;52.266;10.542;2023-04-15T07:36:33;7.87;97.81
64961;SHT31;51487;52.266;10.542;2023-04-15T07:38:58;8.05;97.26
64961;SHT31;51487;52.266;10.542;2023-04-15T07:41:26;8.05;97.11
64961;SHT31;51487;52.266;10.542;2023-04-15T07:43:51;8.01;97.29
64961;SHT31;51487;52.266;10.542;2023-04-15T07:46:16;7.98;97.43
64961;SHT31;51487;52.266;10.542;2023-04-15T07:48:42;8.17;97.07
64961;SHT31;51487;52.266;10.542;2023-04-15T07:51:07;8.05;97.41
64961;SHT31;51487;52.266;10.542;2023-04-15T07:53:34;8.24;96.89
64961;SHT31;51487;52.266;10.542;2023-04-15T07:56:00;8.09;97.58
64961;SHT31;51487;52.266;10.542;2023-04-15T07:58:25;8.21;97.22
64961;SHT31;51487;52.266;10.542;2023-04-15T08:00:51;8.35;96.48
64961;SHT31;51487;52.266;10.542;2023-04-15T08:03:17;8.35;96.66
64961;SHT31;51487;52.266;10.542;2023-04-15T08:05:42;8.41;96.67
64961;SHT31;51487;52.266;10.542;2023-04-15T08:08:07;8.42;96.54
64961;SHT31;51487;52.266;10.542;2023-04-15T08:10:33;8.36;96.51
64961;SHT31;51487;52.266;10.542;2023-04-15T08:12:58;8.32;96.56
64961;SHT31;51487;52.266;10.542;2023-04-15T08:15:24;8.18;97.16
64961;SHT31;51487;52.266;10.542;2023-04-15T08:17:50;8.32;97.14
64961;SHT31;51487;52.266;10.542;2023-04-15T08:20:15;8.25;97.36
64961;SHT31;51487;52.266;10.542;2023-04-15T08:22:40;8.39;97.00
64961;SHT31;51487;52.266;10.542;2023-04-15T08:25:06;8.52;96.74
64961;SHT31;51487;52.266;10.542;2023-04-15T08:27:33;8.53;96.68
64961;SHT31;51487;52.266;10.542;2023-04-15T08:29:58;8.42;96.78
64961;SHT31;51487;52.266;10.542;2023-04-15T08:32:24;8.50;96.86
64961;SHT31;51487;52.266;10.542;2023-04-15T08:34:50;8.42;97.35
64961;SHT31;51487;52.266;10.542;2023-04-15T08:37:16;8.55;97.20
64961;SHT31;51487;52.266;10.542;2023-04-15T08:39:41;8.46;96.92
64961;SHT31;51487;52.266;10.542;2023-04-15T08:42:11;8.53;97.16
64961;SHT31;51487;52.266;10.542;2023-04-15T08:44:41;8.39;97.08
64961;SHT31;51487;52.266;10.542;2023-04-15T08:47:07;8.39;97.42
64961;SHT31;51487;52.266;10.542;2023-04-15T08:49:34;8.49;97.13
64961;SHT31;51487;52.266;10.542;2023-04-15T08:52:03;8.49;97.24
64961;SHT31;51487;52.266;10.542;2023-04-15T08:54:29;8.50;97.10
64961;SHT31;51487;52.266;10.542;2023-04-15T08:56:56;8.60;97.22
64961;SHT31;51487;52.266;10.542;2023-04-15T08:59:23;8.75;97.06
64961;SHT31;51487;52.266;10.542;2023-04-15T09:01:49;8.84;96.65
64961;SHT31;51487;52.266;10.542;2023-04-15T09:04:18;8.88;96.41
64961;SHT31;51487;52.266;10.542;2023-04-15T09:06:43;8.80;96.85
64961;SHT31;51487;52.266;10.542;2023-04-15T09:09:08;8.80;96.53
64961;SHT31;51487;52.266;10.542;2023-04-15T09:11:34;8.77;96.46
64961;SHT31;51487;52.266;10.542;2023-04-15T09:14:00;8.88;96.45
64961;SHT31;51487;52.266;10.542;2023-04-15T09:16:26;8.75;96.42
64961;SHT31;51487;52.266;10.542;2023-04-15T09:18:52;8.73;96.44
64961;SHT31;51487;52.266;10.542;2023-04-15T09:21:18;8.79;96.40
64961;SHT31;51487;52.266;10.542;2023-04-15T09:23:55;8.69;97.03
64961;SHT31;51487;52.266;10.542;2023-04-15T09:29:09;8.75;96.99
64961;SHT31;51487;52.266;10.542;2023-04-15T09:31:35;8.67;97.01
64961;SHT31;51487;52.266;10.542;2023-04-15T09:34:01;8.60;97.32
64961;SHT31;51487;52.266;10.542;2023-04-15T09:36:26;8.67;97.21
64961;SHT31;51487;52.266;10.542;2023-04-15T09:38:58;8.77;97.11
64961;SHT31;51487;52.266;10.542;2023-04-15T09:41:25;8.67;97.27
64961;SHT31;51487;52.266;10.542;2023-04-15T09:43:50;8.72;97.25
64961;SHT31;51487;52.266;10.542;2023-04-15T09:46:16;8.86;96.75
64961;SHT31;51487;52.266;10.542;2023-04-15T09:48:41;8.80;97.08
64961;SHT31;51487;52.266;10.542;2023-04-15T09:51:07;8.83;96.89
64961;SHT31;51487;52.266;10.542;2023-04-15T09:53:34;8.94;96.45
64961;SHT31;51487;52.266;10.542;2023-04-15T09:56:00;8.97;96.48
64961;SHT31;51487;52.266;10.542;2023-04-15T09:58:31;8.97;96.39
64961;SHT31;51487;52.266;10.542;2023-04-15T10:00:58;8.73;97.31
64961;SHT31;51487;52.266;10.542;2023-04-15T10:03:26;8.88;97.24
64961;SHT31;51487;52.266;10.542;2023-04-15T10:05:54;9.03;96.99
64961;SHT31;51487;52.266;10.542;2023-04-15T10:08:24;9.13;96.54
64961;SHT31;51487;52.266;10.542;2023-04-15T10:10:50;8.96;96.20
64961;SHT31;51487;52.266;10.542;2023-04-15T10:13:22;9.08;96.27
64961;SHT31;51487;52.266;10.542;2023-04-15T10:16:10;9.08;96.19
64961;SHT31;51487;52.266;10.542;2023-04-15T10:18:41;9.07;96.33
64961;SHT31;51487;52.266;10.542;2023-04-15T10:21:07;9.06;96.20
64961;SHT31;51487;52.266;10.542;2023-04-15T10:23:33;9.01;96.64
64961;SHT31;51487;52.266;10.542;2023-04-15T10:25:59;9.23;96.34
64961;SHT31;51487;52.266;10.542;2023-04-15T10:28:25;9.30;96.30
64961;SHT31;51487;52.266;10.542;2023-04-15T10:30:51;9.35;95.73
64961;SHT31;51487;52.266;10.542;2023-04-15T10:33:20;9.21;96.01
64961;SHT31;51487;52.266;10.542;2023-04-15T10:35:47;9.41;95.51
64961;SHT31;51487;52.266;10.542;2023-04-15T10:38:40;9.48;95.24
64961;SHT31;51487;52.266;10.542;2023-04-15T10:41:18;9.42;95.60
64961;SHT31;51487;52.266;10.542;2023-04-15T10:46:39;9.23;95.53
64961;SHT31;51487;52.266;10.542;2023-04-15T10:49:08;9.42;95.73
64961;SHT31;51487;52.266;10.542;2023-04-15T10:51:37;9.44;95.46
64961;SHT31;51487;52.266;10.542;2023-04-15T10:54:11;9.46;95.41
64961;SHT31;51487;52.266;10.542;2023-04-15T10:56:37;9.44;95.45
64961;SHT31;51487;52.266;10.542;2023-04-15T10:59:05;9.49;95.25
64961;SHT31;51487;52.266;10.542;2023-04-15T11:01:55;9.46;95.24
64961;SHT31;51487;52.266;10.542;2023-04-15T11:04:55;9.56;94.98
64961;SHT31;51487;52.266;10.542;2023-04-15T11:07:37;9.45;94.99
64961;SHT31;51487;52.266;10.542;2023-04-15T11:12:58;9.48;95.25
64961;SHT31;51487;52.266;10.542;2023-04-15T11:15:33;9.44;95.62
64961;SHT31;51487;52.266;10.542;2023-04-15T11:20:38;9.38;95.98
64961;SHT31;51487;52.266;10.542;2023-04-15T11:23:04;9.34;95.83
64961;SHT31;51487;52.266;10.542;2023-04-15T11:25:31;9.38;96.10
64961;SHT31;51487;52.266;10.542;2023-04-15T11:27:58;9.45;95.94
64961;SHT31;51487;52.266;10.542;2023-04-15T11:30:29;9.39;95.97
64961;SHT31;51487;52.266;10.542;2023-04-15T11:33:04;9.35;95.93
64961;SHT31;51487;52.266;10.542;2023-04-15T11:35:30;9.36;96.26
64961;SHT31;51487;52.266;10.542;2023-04-15T11:37:55;9.31;96.63
64961;SHT31;51487;52.266;10.542;2023-04-15T11:40:25;9.34;96.35
64961;SHT31;51487;52.266;10.542;2023-04-15T11:45:31;9.46;96.12
64961;SHT31;51487;52.266;10.542;2023-04-15T11:48:08;9.54;95.96
64961;SHT31;51487;52.266;10.542;2023-04-15T11:50:35;9.55;95.92
64961;SHT31;51487;52.266;10.542;2023-04-15T11:53:05;9.63;95.86
64961;SHT31;51487;52.266;10.542;2023-04-15T11:55:40;9.68;95.62
64961;SHT31;51487;52.266;10.542;2023-04-15T11:58:18;9.59;95.61
64961;SHT31;51487;52.266;10.542;2023-04-15T12:00:49;9.52;95.71
64961;SHT31;51487;52.266;10.542;2023-04-15T12:03:27;9.61;95.53
64961;SHT31;51487;52.266;10.542;2023-04-15T12:11:14;9.66;96.04
64961;SHT31;51487;52.266;10.542;2023-04-15T12:13:43;9.68;95.34
64961;SHT31;51487;52.266;10.542;2023-04-15T12:16:08;9.68;95.23
64961;SHT31;51487;52.266;10.542;2023-04-15T12:18:37;9.83;95.15
64961;SHT31;51487;52.266;10.542;2023-04-15T12:21:11;10.03;94.71
64961;SHT31;51487;52.266;10.542;2023-04-15T12:23:38;10.07;94.50
64961;SHT31;51487;52.266;10.542;2023-04-15T12:26:04;10.06;94.36
64961;SHT31;51487;52.266;10.542;2023-04-15T12:28:31;10.16;93.47
64961;SHT31;51487;52.266;10.542;2023-04-15T12:30:56;10.24;93.49
64961;SHT31;51487;52.266;10.542;2023-04-15T12:33:22;10.21;93.34
64961;SHT31;51487;52.266;10.542;2023-04-15T12:35:47;10.10;93.78
64961;SHT31;51487;52.266;10.542;2023-04-15T12:38:13;10.14;93.96
64961;SHT31;51487;52.266;10.542;2023-04-15T12:40:38;10.20;93.09
64961;SHT31;51487;52.266;10.542;2023-04-15T12:43:03;10.23;93.48
64961;SHT31;51487;52.266;10.542;2023-04-15T12:45:29;10.29;93.36
64961;SHT31;51487;52.266;10.542;2023-04-15T12:47:54;10.23;92.99
64961;SHT31;51487;52.266;10.542;2023-04-15T12:50:20;10.43;92.66
64961;SHT31;51487;52.266;10.542;2023-04-15T12:52:45;10.27;92.78
64961;SHT31;51487;52.266;10.542;2023-04-15T12:55:11;10.32;93.01
64961;SHT31;51487;52.266;10.542;2023-04-15T12:57:37;10.25;93.04
64961;SHT31;51487;52.266;10.542;2023-04-15T13:00:02;10.48;92.54
64961;SHT31;51487;52.266;10.542;2023-04-15T13:02:30;10.54;92.56
64961;SHT31;51487;52.266;10.542;2023-04-15T13:04:56;10.47;92.74
64961;SHT31;51487;52.266;10.542;2023-04-15T13:07:21;10.38;92.87
64961;SHT31;51487;52.266;10.542;2023-04-15T13:09:47;10.58;92.49
64961;SHT31;51487;52.266;10.542;2023-04-15T13:12:12;10.55;92.39
64961;SHT31;51487;52.266;10.542;2023-04-15T13:14:38;10.69;92.45
64961;SHT31;51487;52.266;10.542;2023-04-15T13:17:04;10.75;92.27
64961;SHT31;51487;52.266;10.542;2023-04-15T13:19:34;10.82;91.56
64961;SHT31;51487;52.266;10.542;2023-04-15T13:22:01;10.78;91.65
64961;SHT31;51487;52.266;10.542;2023-04-15T13:24:26;10.88;91.19
64961;SHT31;51487;52.266;10.542;2023-04-15T13:26:51;10.99;91.37
64961;SHT31;51487;52.266;10.542;2023-04-15T13:29:17;11.05;91.02
64961;SHT31;51487;52.266;10.542;2023-04-15T13:31:43;11.03;90.89
64961;SHT31;51487;52.266;10.542;2023-04-15T13:34:08;11.27;90.20
64961;SHT31;51487;52.266;10.542;2023-04-15T13:36:33;11.36;90.38
64961;SHT31;51487;52.266;10.542;2023-04-15T13:38:59;11.29;90.31
64961;SHT31;51487;52.266;10.542;2023-04-15T13:41:24;11.32;90.53
64961;SHT31;51487;52.266;10.542;2023-04-15T13:43:50;11.32;90.82
64961;SHT31;51487;52.266;10.542;2023-04-15T13:46:15;11.34;90.20
64961;SHT31;51487;52.266;10.542;2023-04-15T13:48:41;11.39;90.45
64961;SHT31;51487;52.266;10.542;2023-04-15T13:51:06;11.56;90.29
64961;SHT31;51487;52.266;10.542;2023-04-15T13:53:32;11.61;89.82
64961;SHT31;51487;52.266;10.542;2023-04-15T13:55:57;11.74;89.39
64961;SHT31;51487;52.266;10.542;2023-04-15T13:58:23;11.70;89.65
64961;SHT31;51487;52.266;10.542;2023-04-15T14:00:48;11.77;89.97
64961;SHT31;51487;52.266;10.542;2023-04-15T14:03:13;11.84;89.65
64961;SHT31;51487;52.266;10.542;2023-04-15T14:05:39;11.98;91.47
64961;SHT31;51487;52.266;10.542;2023-04-15T14:08:04;11.64;89.94
64961;SHT31;51487;52.266;10.542;2023-04-15T14:10:30;12.04;89.13
64961;SHT31;51487;52.266;10.542;2023-04-15T14:12:55;11.99;89.04
64961;SHT31;51487;52.266;10.542;2023-04-15T14:15:20;12.38;88.20
64961;SHT31;51487;52.266;10.542;2023-04-15T14:17:46;12.64;86.24
64961;SHT31;51487;52.266;10.542;2023-04-15T14:20:11;12.39;87.08
64961;SHT31;51487;52.266;10.542;2023-04-15T14:22:37;12.01;88.75
64961;SHT31;51487;52.266;10.542;2023-04-15T14:25:03;11.67;90.15
64961;SHT31;51487;52.266;10.542;2023-04-15T14:27:28;11.74;90.02
64961;SHT31;51487;52.266;10.542;2023-04-15T14:29:54;11.57;90.94
64961;SHT31;51487;52.266;10.542;2023-04-15T14:32:19;11.61;90.72
64961;SHT31;51487;52.266;10.542;2023-04-15T14:34:45;11.59;90.88
64961;SHT31;51487;52.266;10.542;2023-04-15T14:37:10;11.60;90.84
64961;SHT31;51487;52.266;10.542;2023-04-15T14:39:36;11.57;91.15
64961;SHT31;51487;52.266;10.542;2023-04-15T14:42:01;11.51;91.35
64961;SHT31;51487;52.266;10.542;2023-04-15T14:44:26;11.59;91.48
64961;SHT31;51487;52.266;10.542;2023-04-15T14:46:52;11.67;91.29
64961;SHT31;51487;52.266;10.542;2023-04-15T14:49:18;11.67;91.11
64961;SHT31;51487;52.266;10.542;2023-04-15T14:51:43;11.66;91.41
64961;SHT31;51487;52.266;10.542;2023-04-15T14:54:10;11.61;91.79
64961;SHT31;51487;52.266;10.542;2023-04-15T14:56:35;11.54;92.26
64961;SHT31;51487;52.266;10.542;2023-04-15T14:59:01;11.66;92.02
64961;SHT31;51487;52.266;10.542;2023-04-15T15:01:26;11.54;92.33
64961;SHT31;51487;52.266;10.542;2023-04-15T15:03:52;11.66;92.16
64961;SHT31;51487;52.266;10.542;2023-04-15T15:06:19;11.73;91.88
64961;SHT31;51487;52.266;10.542;2023-04-15T15:08:45;11.67;92.15
64961;SHT31;51487;52.266;10.542;2023-04-15T15:11:10;11.71;92.05
64961;SHT31;51487;52.266;10.542;2023-04-15T15:13:35;11.73;92.22
64961;SHT31;51487;52.266;10.542;2023-04-15T15:16:01;11.75;92.28
64961;SHT31;51487;52.266;10.542;2023-04-15T15:18:26;11.84;92.26
64961;SHT31;51487;52.266;10.542;2023-04-15T15:20:52;11.88;92.38
64961;SHT31;51487;52.266;10.542;2023-04-15T15:23:17;11.88;91.69
64961;SHT31;51487;52.266;10.542;2023-04-15T15:25:43;11.78;91.67
64961;SHT31;51487;52.266;10.542;2023-04-15T15:28:10;11.80;92.39
64961;SHT31;51487;52.266;10.542;2023-04-15T15:30:35;11.82;91.87
64961;SHT31;51487;52.266;10.542;2023-04-15T15:33:01;11.78;92.51
64961;SHT31;51487;52.266;10.542;2023-04-15T15:35:26;11.75;93.09
64961;SHT31;51487;52.266;10.542;2023-04-15T15:37:52;11.73;93.33
64961;SHT31;51487;52.266;10.542;2023-04-15T15:40:17;11.74;93.03
64961;SHT31;51487;52.266;10.542;2023-04-15T15:42:43;11.66;93.14